Time;durP1;ratioP1;P1;durP2;ratioP2;P2;SDS_P1;SDS_P2;PMS_P1;PMS_P2;Temp;Humidity;BMP_temperature;BMP_pressure;BME280_temperature;BME280_humidity;BME280_pressure;Samples;Min_cycle;Max_cycle;Signal;HPM_P1;HPM_P2
2022/03/28 00:00:44;;;;;;;20.43;9.05;;;;;;;4.25;42.62;101025.88;1738301;82;25766;-71
2022/03/28 00:03:11;;;;;;;18.57;8.50;;;;;;;4.23;42.60;101031.22;1738377;82;25411;-71
2022/03/28 00:05:37;;;;;;;20.12;8.85;;;;;;;4.21;42.65;101030.13;1708539;84;27387;-71
2022/03/28 00:08:04;;;;;;;19.82;8.93;;;;;;;4.18;42.87;101019.91;1708496;84;25674;-71
2022/03/28 00:10:31;;;;;;;17.40;8.60;;;;;;;4.14;43.27;101021.47;1738342;82;25623;-71
2022/03/28 00:12:57;;;;;;;19.77;8.70;;;;;;;4.12;43.32;101015.55;1738290;82;26430;-71
2022/03/28 00:15:24;;;;;;;17.45;9.00;;;;;;;4.09;43.12;101008.02;1708679;84;25395;-70
2022/03/28 00:17:51;;;;;;;17.30;8.93;;;;;;;4.06;43.21;101011.18;1738468;82;27331;-70
2022/03/28 00:20:17;;;;;;;18.12;8.68;;;;;;;4.04;43.32;101007.41;1738368;82;25712;-70
2022/03/28 00:22:44;;;;;;;17.77;8.15;;;;;;;4.01;43.83;101005.76;1708727;84;25554;-70
2022/03/28 00:25:11;;;;;;;16.97;8.05;;;;;;;3.98;43.56;100995.00;1738450;82;25746;-70
2022/03/28 00:27:39;;;;;;;16.85;7.92;;;;;;;3.95;43.77;100994.19;1738508;82;25613;-70
2022/03/28 00:30:08;;;;;;;22.37;8.18;;;;;;;3.92;43.97;100991.45;1708918;84;27218;-70
2022/03/28 00:32:35;;;;;;;19.30;8.00;;;;;;;3.91;43.78;100989.02;1738583;82;31174;-70
2022/03/28 00:35:01;;;;;;;18.45;8.13;;;;;;;3.88;43.98;100982.31;1738293;82;25644;-70
2022/03/28 00:37:28;;;;;;;18.45;8.33;;;;;;;3.86;43.83;100983.06;1708897;83;25630;-70
2022/03/28 00:39:54;;;;;;;18.37;8.68;;;;;;;3.85;44.21;100975.31;1709776;83;25415;-70
2022/03/28 00:42:21;;;;;;;19.70;8.35;;;;;;;3.82;44.05;100975.27;1689129;85;27348;-70
2022/03/28 00:44:47;;;;;;;17.20;8.13;;;;;;;3.79;44.17;100969.59;1690929;83;25201;-70
2022/03/28 00:47:13;;;;;;;16.35;7.58;;;;;;;3.76;44.06;100962.05;1694592;84;25622;-70
2022/03/28 00:49:40;;;;;;;19.12;7.47;;;;;;;3.74;44.16;100963.09;1689176;85;25590;-70
2022/03/28 00:52:07;;;;;;;19.17;8.05;;;;;;;3.72;44.50;100957.73;1694797;84;25586;-70
2022/03/28 00:54:34;;;;;;;17.17;7.78;;;;;;;3.70;44.77;100959.31;1689499;85;27513;-70
2022/03/28 00:57:01;;;;;;;19.12;8.20;;;;;;;3.67;45.14;100950.43;1719867;83;25711;-70
2022/03/28 00:59:31;;;;;;;18.45;7.80;;;;;;;3.65;44.81;100947.73;1695164;84;25581;-70
2022/03/28 01:01:56;;;;;;;15.38;7.00;;;;;;;3.63;44.89;100937.81;1689396;85;26158;-71
2022/03/28 01:04:22;;;;;;;13.98;7.00;;;;;;;3.62;44.96;100937.52;1694759;84;25449;-70
2022/03/28 01:06:48;;;;;;;20.50;7.62;;;;;;;3.59;45.20;100931.32;1689067;85;27194;-71
2022/03/28 01:09:15;;;;;;;18.20;8.40;;;;;;;3.58;44.86;100927.84;1689031;85;25415;-71
2022/03/28 01:11:44;;;;;;;14.58;7.35;;;;;;;3.55;44.94;100919.77;1694571;84;25587;-71
2022/03/28 01:14:11;;;;;;;16.52;7.35;;;;;;;3.54;44.77;100910.66;1689083;85;25627;-71
2022/03/28 01:19:24;;;;;;;16.82;7.62;;;;;;;3.48;44.99;100907.10;1694567;84;27561;-71
2022/03/28 01:21:52;;;;;;;16.10;6.90;;;;;;;3.46;45.22;100899.06;1689015;85;25551;-71
2022/03/28 01:24:18;;;;;;;17.62;7.70;;;;;;;3.44;45.25;100899.30;1689122;85;25454;-71
2022/03/28 01:26:47;;;;;;;16.97;7.40;;;;;;;3.42;45.38;100896.58;1694497;84;25687;-71
2022/03/28 01:29:14;;;;;;;21.02;8.05;;;;;;;3.40;45.44;100886.66;1689114;85;25431;-71
2022/03/28 01:31:41;;;;;;;11.78;7.10;;;;;;;3.38;45.58;100894.93;1694554;84;27466;-71
2022/03/28 01:34:20;;;;;;;14.78;6.80;;;;;;;3.36;45.88;100889.02;1719308;83;25681;-71
2022/03/28 01:36:48;;;;;;;18.82;7.62;;;;;;;3.34;45.79;100883.92;1694681;84;25601;-71
2022/03/28 01:39:17;;;;;;;12.75;6.40;;;;;;;3.30;45.79;100869.44;1688972;84;26239;-71
2022/03/28 01:41:47;;;;;;;17.67;7.33;;;;;;;3.31;45.99;100871.57;1689217;85;25624;-71
2022/03/28 01:44:14;;;;;;;15.70;7.42;;;;;;;3.30;46.17;100867.27;1694559;84;27499;-71
2022/03/28 01:46:44;;;;;;;15.40;6.15;;;;;;;3.29;46.34;100863.79;1719356;83;25551;-71
2022/03/28 01:49:11;;;;;;;16.32;7.70;;;;;;;3.28;46.00;100854.67;1694625;84;25655;-71
2022/03/28 01:51:38;;;;;;;12.68;6.35;;;;;;;3.27;46.01;100859.73;1689042;85;26495;-71
2022/03/28 01:54:06;;;;;;;14.63;6.75;;;;;;;3.26;46.27;100849.57;1719456;83;25572;-71
2022/03/28 01:56:36;;;;;;;17.00;6.75;;;;;;;3.27;46.20;100846.36;1694503;84;27341;-71
2022/03/28 01:59:04;;;;;;;14.13;6.55;;;;;;;3.29;46.30;100841.06;1689050;85;25565;-71
2022/03/28 02:01:31;;;;;;;21.23;7.58;;;;;;;3.28;46.30;100830.61;1694518;84;25445;-71
2022/03/28 02:03:59;;;;;;;17.10;6.85;;;;;;;3.27;46.59;100835.66;1719385;83;25635;-71
2022/03/28 02:06:26;;;;;;;15.93;6.83;;;;;;;3.29;46.16;100830.37;1694533;84;25537;-71
2022/03/28 02:08:54;;;;;;;13.48;6.67;;;;;;;3.31;46.24;100827.45;1689100;85;27522;-71
2022/03/28 02:11:20;;;;;;;14.40;7.00;;;;;;;3.31;46.38;100834.94;1719297;83;25468;-71
2022/03/28 02:13:47;;;;;;;14.23;6.62;;;;;;;3.27;46.32;100819.12;1694525;84;25511;-71
2022/03/28 02:16:13;;;;;;;15.75;6.75;;;;;;;3.32;46.30;100823.70;1689024;85;25553;-71
2022/03/28 02:18:39;;;;;;;14.70;7.60;;;;;;;3.32;46.21;100825.87;1694640;84;25680;-72
2022/03/28 02:21:06;;;;;;;13.85;6.20;;;;;;;3.33;46.18;100814.63;1719462;83;27371;-71
2022/03/28 02:23:33;;;;;;;11.80;6.60;;;;;;;3.34;46.35;100823.75;1694431;84;25574;-71
2022/03/28 02:25:59;;;;;;;18.37;7.47;;;;;;;3.37;46.27;100822.43;1719401;83;25413;-71
2022/03/28 02:28:27;;;;;;;15.48;7.05;;;;;;;3.38;46.35;100813.90;1694465;84;25699;-71
2022/03/28 02:30:54;;;;;;;14.03;7.03;;;;;;;3.38;46.37;100820.59;1689072;85;25508;-71
2022/03/28 02:33:21;;;;;;;10.98;5.78;;;;;;;3.39;46.30;100814.16;1719399;83;27393;-71
2022/03/28 02:35:48;;;;;;;15.88;6.75;;;;;;;3.37;46.34;100803.71;1694433;84;25645;-71
2022/03/28 02:38:14;;;;;;;17.48;6.35;;;;;;;3.35;46.61;100807.16;1690077;84;25624;-71
2022/03/28 02:40:40;;;;;;;11.15;5.78;;;;;;;3.34;46.39;100802.89;1722487;83;26560;-71
2022/03/28 02:43:07;;;;;;;14.47;6.05;;;;;;;3.33;46.45;100807.95;1707995;84;25662;-71
2022/03/28 02:45:36;;;;;;;12.98;6.45;;;;;;;3.32;46.54;100802.31;1707975;84;27927;-71
2022/03/28 02:48:06;;;;;;;13.08;6.95;;;;;;;3.30;46.47;100798.58;1707883;84;25475;-71
2022/03/28 02:50:35;;;;;;;15.48;6.28;;;;;;;3.28;46.54;100808.69;1707858;84;25628;-71
2022/03/28 02:53:01;;;;;;;15.48;7.35;;;;;;;3.28;46.57;100804.67;1707959;84;25751;-71
2022/03/28 02:55:28;;;;;;;13.35;6.45;;;;;;;3.28;46.72;100795.31;1707917;84;25439;-71
2022/03/28 02:57:54;;;;;;;15.63;6.50;;;;;;;3.29;46.99;100787.59;1707954;84;27303;-71
2022/03/28 03:00:21;;;;;;;16.07;6.55;;;;;;;3.31;46.70;100787.34;1707765;84;25651;-71
2022/03/28 03:02:47;;;;;;;10.20;6.03;;;;;;;3.31;46.92;100793.48;1708024;84;25605;-71
2022/03/28 03:05:15;;;;;;;12.20;6.12;;;;;;;3.31;47.09;100786.00;1681491;84;25601;-71
2022/03/28 03:07:41;;;;;;;11.28;5.25;;;;;;;3.33;47.55;100779.87;1707811;84;25463;-69
2022/03/28 03:10:09;;;;;;;17.45;6.85;;;;;;;3.38;46.86;100780.47;1707846;84;28047;-70
2022/03/28 03:12:36;;;;;;;13.78;6.37;;;;;;;3.39;46.90;100778.89;1758488;81;25455;-70
2022/03/28 03:15:03;;;;;;;13.30;6.50;;;;;;;3.39;47.04;100768.70;1758551;81;25433;-70
2022/03/28 03:17:29;;;;;;;14.68;5.65;;;;;;;3.39;47.14;100773.55;1758483;81;26307;-70
2022/03/28 03:19:56;;;;;;;11.28;5.62;;;;;;;3.40;46.95;100768.45;1758635;81;25465;-70
2022/03/28 03:22:22;;;;;;;10.50;5.80;;;;;;;3.42;47.21;100766.33;1758525;81;27997;-70
2022/03/28 03:24:49;;;;;;;11.50;5.40;;;;;;;3.46;47.41;100765.33;1758485;81;25638;-70
2022/03/28 03:27:15;;;;;;;11.88;6.22;;;;;;;3.48;47.51;100761.88;1758545;81;25492;-69
2022/03/28 03:29:42;;;;;;;14.53;5.83;;;;;;;3.50;47.38;100767.77;1758544;81;25588;-70
2022/03/28 03:32:09;;;;;;;11.65;5.95;;;;;;;3.52;47.53;100762.98;1758577;81;25632;-70
2022/03/28 03:34:36;;;;;;;13.15;6.17;;;;;;;3.50;47.62;100763.77;1758540;81;27406;-69
2022/03/28 03:37:03;;;;;;;12.85;6.97;;;;;;;3.51;47.72;100755.48;1758481;81;25657;-69
2022/03/28 03:39:29;;;;;;;13.18;6.47;;;;;;;3.52;47.46;100744.25;1758565;81;25461;-69
2022/03/28 03:41:56;;;;;;;13.62;6.92;;;;;;;3.52;47.65;100741.07;1758604;81;25587;-69
2022/03/28 03:44:23;;;;;;;11.45;6.05;;;;;;;3.50;47.73;100745.84;1758559;81;25613;-69
2022/03/28 03:46:49;;;;;;;14.95;6.85;;;;;;;3.50;48.09;100738.35;1758511;81;27508;-69
2022/03/28 03:49:18;;;;;;;14.38;6.83;;;;;;;3.55;48.24;100733.86;1758482;81;25545;-70
2022/03/28 03:51:45;;;;;;;13.93;6.40;;;;;;;3.58;47.98;100729.09;1758689;81;25477;-70
2022/03/28 03:54:11;;;;;;;13.03;6.37;;;;;;;3.63;48.45;100723.80;1758521;81;25744;-69
2022/03/28 03:56:38;;;;;;;14.93;6.33;;;;;;;3.69;48.26;100724.11;1758580;81;25629;-69
2022/03/28 03:59:05;;;;;;;13.93;7.08;;;;;;;3.76;48.29;100720.69;1758562;81;27974;-70
2022/03/28 04:01:31;;;;;;;10.25;6.30;;;;;;;3.82;48.41;100716.22;1758442;81;25455;-70
2022/03/28 04:03:57;;;;;;;14.10;6.80;;;;;;;3.89;48.44;100719.48;1758556;81;25623;-70
2022/03/28 04:06:24;;;;;;;12.28;6.25;;;;;;;3.96;48.59;100717.41;1758497;81;26279;-70
2022/03/28 04:08:51;;;;;;;14.63;6.55;;;;;;;4.05;48.69;100709.71;1758584;81;25615;-72
2022/03/28 04:11:17;;;;;;;13.50;6.95;;;;;;;4.17;48.56;100717.06;1758678;81;27328;-69
2022/03/28 04:13:43;;;;;;;13.53;6.67;;;;;;;4.25;48.56;100711.75;1758619;81;25656;-69
2022/03/28 04:16:09;;;;;;;13.18;6.65;;;;;;;4.30;48.57;100703.22;1758699;81;29681;-70
2022/03/28 04:18:35;;;;;;;13.68;6.15;;;;;;;4.38;48.64;100703.83;1758674;81;26305;-70
2022/03/28 04:21:02;;;;;;;13.83;7.45;;;;;;;4.46;48.52;100698.80;1758741;81;25485;-70
2022/03/28 04:23:28;;;;;;;21.50;6.45;;;;;;;4.57;48.73;100700.20;1758235;81;27410;-70
2022/03/28 04:25:54;;;;;;;16.80;6.90;;;;;;;4.66;48.46;100699.97;1758667;81;25631;-71
2022/03/28 04:28:20;;;;;;;12.95;6.62;;;;;;;4.76;48.18;100686.62;1758141;81;25650;-70
2022/03/28 04:30:47;;;;;;;15.38;7.40;;;;;;;4.84;48.18;100684.80;1758666;81;25664;-70
2022/03/28 04:33:13;;;;;;;16.55;8.08;;;;;;;4.93;48.11;100689.67;1758801;81;25570;-70
2022/03/28 04:35:41;;;;;;;13.22;7.30;;;;;;;5.01;48.04;100691.85;1758795;81;27330;-70
2022/03/28 04:38:09;;;;;;;15.18;7.05;;;;;;;5.06;47.81;100683.83;1758499;81;25669;-70
2022/03/28 04:40:37;;;;;;;20.20;7.17;;;;;;;5.13;48.01;100684.39;1758414;81;25580;-70
2022/03/28 04:43:05;;;;;;;19.60;7.10;;;;;;;5.20;47.68;100688.17;1758326;81;25622;-70
2022/03/28 04:45:32;;;;;;;28.65;13.30;;;;;;;5.27;47.69;100679.33;1758513;81;25458;-70
2022/03/28 04:48:00;;;;;;;12.43;7.33;;;;;;;5.32;47.58;100681.23;1758368;81;27300;-71
2022/03/28 04:50:29;;;;;;;11.68;6.40;;;;;;;5.39;47.69;100681.78;1758301;81;25619;-71
2022/03/28 04:52:56;;;;;;;17.45;7.92;;;;;;;5.47;47.77;100674.56;1758543;81;25591;-71
2022/03/28 04:55:22;;;;;;;17.87;7.50;;;;;;;5.53;47.61;100668.11;1758392;81;26169;-71
2022/03/28 04:57:49;;;;;;;13.58;7.60;;;;;;;5.57;47.69;100670.55;1758451;81;25591;-71
2022/03/28 05:00:16;;;;;;;17.52;7.20;;;;;;;5.65;47.46;100671.09;1758427;81;27431;-71
2022/03/28 05:02:42;;;;;;;17.60;8.00;;;;;;;5.69;47.45;100676.22;1758348;81;25627;-70
2022/03/28 05:05:09;;;;;;;15.50;8.08;;;;;;;5.77;47.32;100672.98;1758462;81;25561;-71
2022/03/28 05:07:36;;;;;;;15.98;7.40;;;;;;;5.79;47.30;100670.31;1758339;81;25663;-70
2022/03/28 05:10:05;;;;;;;16.85;7.37;;;;;;;5.85;47.22;100673.80;1758434;81;25634;-71
2022/03/28 05:12:33;;;;;;;19.90;8.40;;;;;;;5.90;47.41;100668.97;1758541;81;27926;-71
2022/03/28 05:15:01;;;;;;;15.95;7.95;;;;;;;5.97;47.36;100674.91;1758307;81;25693;-71
2022/03/28 05:17:32;;;;;;;16.00;8.40;;;;;;;6.04;47.55;100666.04;1758391;81;25601;-71
2022/03/28 05:20:01;;;;;;;17.07;7.97;;;;;;;6.12;47.66;100671.42;1758387;81;26129;-70
2022/03/28 05:22:27;;;;;;;16.52;8.25;;;;;;;6.21;47.54;100663.07;1758559;81;25414;-70
2022/03/28 05:24:55;;;;;;;14.90;8.25;;;;;;;6.30;47.70;100663.33;1758353;81;27162;-70
2022/03/28 05:27:22;;;;;;;19.55;8.35;;;;;;;6.38;47.60;100664.67;1758272;81;25637;-70
2022/03/28 05:29:49;;;;;;;15.68;7.92;;;;;;;6.47;47.59;100662.52;1758274;81;25637;-71
2022/03/28 05:32:17;;;;;;;17.17;8.30;;;;;;;6.55;47.57;100657.11;1758342;81;25713;-70
2022/03/28 05:34:43;;;;;;;15.15;8.48;;;;;;;6.64;47.58;100656.83;1737083;81;26625;-71
2022/03/28 05:37:16;;;;;;;13.75;7.78;;;;;;;6.75;47.33;100654.90;1696246;82;27329;-71
2022/03/28 05:39:48;;;;;;;18.32;8.28;;;;;;;6.85;47.38;100656.76;1711514;83;25666;-71
2022/03/28 05:42:17;;;;;;;14.38;8.68;;;;;;;6.96;47.17;100654.27;1728457;82;25536;-71
2022/03/28 05:44:44;;;;;;;15.70;7.62;;;;;;;7.06;47.13;100652.09;1728649;83;25613;-71
2022/03/28 05:47:10;;;;;;;18.65;8.85;;;;;;;7.21;47.06;100661.42;1710234;82;25591;-71
2022/03/28 05:49:37;;;;;;;15.00;7.97;;;;;;;7.32;47.12;100664.88;1709996;83;27401;-71
2022/03/28 05:52:05;;;;;;;16.73;8.83;;;;;;;7.45;46.93;100670.17;1709936;83;25597;-71
2022/03/28 05:54:31;;;;;;;16.55;8.00;;;;;;;7.57;46.84;100661.20;1710229;83;25584;-71
2022/03/28 05:56:58;;;;;;;14.60;7.83;;;;;;;7.73;46.80;100665.14;1710199;83;25621;-71
2022/03/28 05:59:25;;;;;;;18.42;8.38;;;;;;;7.85;46.80;100664.27;1710233;83;25602;-71
2022/03/28 06:01:51;;;;;;;18.62;8.78;;;;;;;7.99;46.60;100659.03;1710287;83;27325;-71
2022/03/28 06:04:18;;;;;;;17.35;8.93;;;;;;;8.16;46.44;100656.72;1710146;83;25482;-71
2022/03/28 06:06:45;;;;;;;21.42;9.00;;;;;;;8.32;46.28;100657.91;1710207;83;25584;-72
2022/03/28 06:09:11;;;;;;;16.15;9.08;;;;;;;8.47;46.17;100654.30;1710123;83;25683;-71
2022/03/28 06:11:38;;;;;;;22.07;10.15;;;;;;;8.61;45.98;100655.21;1710168;83;25408;-72
2022/03/28 06:14:04;;;;;;;15.68;8.90;;;;;;;8.76;45.85;100651.55;1710202;83;27347;-71
2022/03/28 06:16:31;;;;;;;17.70;8.28;;;;;;;8.89;45.79;100649.50;1710091;83;25650;-71
2022/03/28 06:18:58;;;;;;;14.43;8.93;;;;;;;9.10;45.60;100646.55;1710196;83;25516;-71
2022/03/28 06:21:25;;;;;;;17.75;8.53;;;;;;;9.24;45.38;100644.72;1710145;83;25739;-71
2022/03/28 06:23:51;;;;;;;20.10;8.90;;;;;;;9.42;45.21;100645.04;1710290;83;25665;-70
2022/03/28 06:26:18;;;;;;;18.42;9.18;;;;;;;9.60;45.18;100654.20;1710158;83;27409;-71
2022/03/28 06:28:46;;;;;;;20.25;9.40;;;;;;;9.72;44.97;100634.30;1710078;83;25593;-71
2022/03/28 06:31:13;;;;;;;17.50;9.18;;;;;;;9.89;45.02;100623.77;1710185;83;25638;-71
2022/03/28 06:33:39;;;;;;;19.05;9.03;;;;;;;10.19;45.04;100627.58;1710097;83;26164;-70
2022/03/28 06:36:06;;;;;;;24.75;9.28;;;;;;;10.36;44.72;100621.06;1710201;82;25395;-71
2022/03/28 06:38:32;;;;;;;19.85;9.38;;;;;;;10.63;44.89;100623.54;1710200;83;27424;-73
2022/03/28 06:40:58;;;;;;;18.75;8.80;;;;;;;10.94;44.50;100629.11;1705343;83;25662;-71
2022/03/28 06:43:25;;;;;;;20.48;10.13;;;;;;;11.14;44.04;100626.53;1705127;84;25554;-72
2022/03/28 06:45:51;;;;;;;21.30;10.98;;;;;;;11.37;43.71;100615.73;1680740;84;25622;-71
2022/03/28 06:48:20;;;;;;;20.27;10.30;;;;;;;11.58;43.52;100621.48;1680901;84;25518;-71
2022/03/28 06:50:46;;;;;;;22.25;10.03;;;;;;;11.92;43.12;100618.23;1705028;84;27308;-71
2022/03/28 06:53:13;;;;;;;23.92;9.75;;;;;;;12.15;43.00;100612.20;1704996;84;25489;-71
2022/03/28 06:55:40;;;;;;;21.23;9.05;;;;;;;12.46;42.45;100603.80;1705065;84;25426;-73
2022/03/28 06:58:06;;;;;;;19.75;9.10;;;;;;;12.67;42.65;100610.27;1704674;84;25719;-71
2022/03/28 07:00:34;;;;;;;18.15;9.95;;;;;;;12.89;41.92;100601.78;1704950;84;25418;-72
2022/03/28 07:03:00;;;;;;;18.98;8.50;;;;;;;13.22;41.92;100599.97;1705100;84;27932;-70
2022/03/28 07:05:30;;;;;;;22.32;9.50;;;;;;;13.40;41.10;100613.83;1705017;84;25829;-71
2022/03/28 07:07:56;;;;;;;17.92;8.48;;;;;;;13.35;41.00;100596.33;1705043;84;25535;-71
2022/03/28 07:10:23;;;;;;;18.92;9.38;;;;;;;13.33;41.40;100611.34;1705070;84;25635;-72
2022/03/28 07:12:54;;;;;;;19.95;10.20;;;;;;;13.37;41.42;100591.94;1705116;83;25632;-72
2022/03/28 07:15:18;;;;;;;18.98;9.88;;;;;;;13.55;41.54;100584.56;1703361;84;27370;-72
2022/03/28 07:17:57;;;;;;;22.80;9.08;;;;;;;13.74;41.12;100580.13;1704798;84;25722;-71
2022/03/28 07:20:27;;;;;;;21.57;9.10;;;;;;;13.79;41.13;100580.77;1705038;84;25461;-72
2022/03/28 07:22:56;;;;;;;17.70;9.45;;;;;;;13.78;41.05;100572.94;1705071;84;25467;-73
2022/03/28 07:25:25;;;;;;;20.27;9.93;;;;;;;13.74;41.31;100567.89;1705328;84;25608;-72
2022/03/28 07:27:53;;;;;;;20.57;10.43;;;;;;;13.87;41.32;100570.19;1705177;84;27389;-71
2022/03/28 07:30:21;;;;;;;21.48;10.08;;;;;;;13.98;41.19;100561.36;1704980;84;25644;-71
2022/03/28 07:32:50;;;;;;;17.65;9.75;;;;;;;14.30;41.51;100559.16;1705117;84;25413;-71
2022/03/28 07:35:20;;;;;;;19.35;9.73;;;;;;;14.72;41.33;100559.25;1705139;84;26391;-71
2022/03/28 07:37:47;;;;;;;17.10;9.53;;;;;;;15.03;40.58;100568.18;1705200;84;25454;-71
2022/03/28 07:40:15;;;;;;;23.57;9.68;;;;;;;15.24;40.04;100566.26;1703145;83;27354;-71
2022/03/28 07:42:42;;;;;;;23.92;9.95;;;;;;;15.40;40.08;100555.53;1700912;83;25714;-71
2022/03/28 07:45:10;;;;;;;19.85;10.43;;;;;;;15.81;39.31;100548.40;1700992;84;25469;-71
2022/03/28 07:47:37;;;;;;;18.55;10.15;;;;;;;15.91;38.65;100549.91;1700920;84;26332;-72
2022/03/28 07:50:07;;;;;;;17.57;9.48;;;;;;;15.86;38.06;100551.48;1701172;84;25571;-72
2022/03/28 07:52:34;;;;;;;19.80;10.08;;;;;;;15.82;38.14;100539.67;1701362;84;27346;-72
2022/03/28 07:55:01;;;;;;;21.50;9.70;;;;;;;16.00;38.40;100541.03;1701068;84;25575;-72
2022/03/28 07:57:28;;;;;;;19.12;10.18;;;;;;;16.34;38.29;100549.92;1701164;84;25710;-72
2022/03/28 07:59:55;;;;;;;27.87;10.28;;;;;;;16.75;38.37;100539.89;1648687;86;26320;-72
2022/03/28 08:02:24;;;;;;;18.50;9.78;;;;;;;17.30;37.25;100532.69;1648807;87;25478;-71
2022/03/28 08:04:50;;;;;;;16.80;10.03;;;;;;;17.78;36.12;100534.92;1648703;87;27532;-71
2022/03/28 08:07:17;;;;;;;21.20;10.45;;;;;;;18.14;36.45;100522.15;1648597;87;25997;-72
2022/03/28 08:09:43;;;;;;;20.10;10.32;;;;;;;18.47;35.59;100523.68;1648689;87;25541;-73
2022/03/28 08:12:10;;;;;;;16.87;10.35;;;;;;;18.81;35.46;100513.88;1648588;87;26239;-72
2022/03/28 08:14:38;;;;;;;20.88;9.68;;;;;;;19.27;34.90;100519.30;1648730;87;25779;-71
2022/03/28 08:17:05;;;;;;;18.62;9.25;;;;;;;19.60;34.10;100511.89;1648671;87;27329;-71
2022/03/28 08:19:31;;;;;;;17.67;10.13;;;;;;;19.74;32.74;100508.04;1648538;87;25704;-71
2022/03/28 08:21:58;;;;;;;17.65;9.50;;;;;;;19.95;33.48;100510.92;1648481;87;25778;-70
2022/03/28 08:24:25;;;;;;;21.50;11.05;;;;;;;20.12;32.96;100500.80;1671981;84;25647;-71
2022/03/28 08:26:51;;;;;;;20.68;10.13;;;;;;;20.23;33.31;100502.36;1700861;84;25391;-70
2022/03/28 08:29:17;;;;;;;20.92;8.63;;;;;;;20.43;33.41;100493.98;1700924;83;28044;-71
2022/03/28 08:31:44;;;;;;;19.60;9.13;;;;;;;20.73;33.22;100489.13;1700883;84;25627;-70
2022/03/28 08:34:11;;;;;;;17.70;8.55;;;;;;;20.88;32.95;100489.52;1700974;84;25717;-71
2022/03/28 08:36:39;;;;;;;16.37;8.68;;;;;;;21.25;32.46;100486.01;1700743;84;25576;-70
2022/03/28 08:39:06;;;;;;;18.77;10.13;;;;;;;21.20;31.38;100476.72;1701202;84;25710;-71
2022/03/28 08:41:33;;;;;;;16.45;8.75;;;;;;;21.19;31.75;100482.78;1708863;83;27349;-70
2022/03/28 08:44:01;;;;;;;18.00;8.43;;;;;;;21.05;31.03;100482.05;1709983;83;25583;-71
2022/03/28 08:46:29;;;;;;;17.32;9.33;;;;;;;20.78;31.38;100488.20;1710024;83;25498;-70
2022/03/28 08:48:58;;;;;;;19.35;8.78;;;;;;;20.56;31.07;100475.34;1709965;83;26178;-70
2022/03/28 08:51:27;;;;;;;17.32;9.10;;;;;;;20.62;31.73;100463.67;1710277;83;25432;-70
2022/03/28 08:53:55;;;;;;;18.75;10.08;;;;;;;21.17;31.60;100465.09;1710178;83;27961;-70
2022/03/28 08:56:22;;;;;;;15.90;8.88;;;;;;;21.27;30.79;100459.69;1709925;83;25723;-71
2022/03/28 08:58:49;;;;;;;17.73;8.90;;;;;;;21.01;30.35;100453.73;1709949;83;25656;-70
2022/03/28 09:01:15;;;;;;;16.10;8.58;;;;;;;20.82;30.19;100442.33;1710040;83;25620;-71
2022/03/28 09:03:47;;;;;;;14.83;8.78;;;;;;;20.97;30.56;100453.48;1709992;83;25680;-70
2022/03/28 09:06:37;;;;;;;20.43;8.53;;;;;;;20.88;29.79;100455.93;1709951;83;28060;-70
2022/03/28 09:09:17;;;;;;;16.17;8.60;;;;;;;20.67;30.78;100461.16;1709965;83;25534;-71
2022/03/28 09:11:54;;;;;;;18.57;9.78;;;;;;;20.86;30.67;100441.78;1710111;83;25575;-71
2022/03/28 09:14:36;;;;;;;23.02;10.40;;;;;;;21.14;29.38;100446.59;1709966;83;25748;-70
2022/03/28 09:17:11;;;;;;;14.47;7.87;;;;;;;21.10;30.00;100434.17;1710002;83;25635;-70
2022/03/28 09:19:58;;;;;;;19.42;9.78;;;;;;;21.16;29.54;100422.24;1710032;83;27349;-70
2022/03/28 09:22:24;;;;;;;19.20;9.20;;;;;;;21.05;29.44;100418.80;1707540;83;25653;-70
2022/03/28 09:25:00;;;;;;;11.83;7.70;;;;;;;21.25;29.60;100411.73;1710045;83;25478;-70
2022/03/28 09:27:29;;;;;;;12.18;7.33;;;;;;;21.64;29.72;100406.59;1709869;83;25627;-69
2022/03/28 09:30:16;;;;;;;15.98;7.22;;;;;;;21.81;27.92;100396.87;1709982;83;25697;-70
2022/03/28 09:32:47;;;;;;;16.65;7.55;;;;;;;21.87;29.11;100400.05;1709073;83;27361;-70
2022/03/28 09:35:23;;;;;;;16.02;7.72;;;;;;;22.19;28.49;100396.70;1709869;83;25634;-70
2022/03/28 09:38:08;;;;;;;16.82;7.25;;;;;;;22.47;28.02;100398.82;1710053;83;25682;-70
2022/03/28 09:40:49;;;;;;;14.90;7.22;;;;;;;22.91;28.69;100399.75;1706914;83;25621;-70
2022/03/28 09:43:24;;;;;;;16.30;6.40;;;;;;;22.99;27.53;100397.21;1700877;84;25639;-70
2022/03/28 09:45:54;;;;;;;16.97;6.83;;;;;;;22.82;26.12;100379.45;1700909;84;27399;-70
2022/03/28 09:48:27;;;;;;;11.43;6.58;;;;;;;22.80;26.10;100374.92;1700713;84;25668;-70
2022/03/28 09:51:05;;;;;;;17.67;7.15;;;;;;;22.88;25.77;100373.77;1700884;84;25687;-70
2022/03/28 09:53:37;;;;;;;17.17;7.08;;;;;;;22.73;26.20;100378.45;1700845;83;25727;-71
2022/03/28 09:56:08;;;;;;;19.10;7.50;;;;;;;22.75;25.62;100365.66;1700844;84;25508;-71
2022/03/28 09:58:56;;;;;;;15.18;7.47;;;;;;;22.99;25.93;100357.82;1700441;84;27396;-69
2022/03/28 10:01:35;;;;;;;;;;;;;;;23.84;25.96;100359.02;1703308;84;25494;-70
2022/03/28 10:04:05;;;;;;;12.95;6.87;;;;;;;24.82;24.88;100349.73;1700847;84;25433;-71
2022/03/28 10:06:33;;;;;;;15.20;6.35;;;;;;;25.54;24.00;100350.77;1700791;84;25686;-69
2022/03/28 10:09:00;;;;;;;19.05;6.28;;;;;;;26.31;23.53;100344.59;1700814;84;25470;-70
2022/03/28 10:11:28;;;;;;;13.25;5.90;;;;;;;26.90;23.32;100350.34;1700820;84;27946;-71
2022/03/28 10:13:55;;;;;;;16.30;6.80;;;;;;;27.25;21.64;100332.92;1700750;84;25778;-70
2022/03/28 10:16:22;;;;;;;14.58;7.20;;;;;;;27.50;21.55;100350.57;1700790;84;25545;-71
2022/03/28 10:18:52;;;;;;;16.82;6.53;;;;;;;27.52;20.76;100341.81;1700849;84;25668;-71
2022/03/28 10:21:36;;;;;;;12.82;7.45;;;;;;;27.39;19.58;100356.30;1700852;84;25411;-71
2022/03/28 10:24:13;;;;;;;12.43;6.85;;;;;;;26.96;19.44;100315.34;1700800;83;27343;-71
2022/03/28 10:26:47;;;;;;;17.32;7.53;;;;;;;27.01;20.15;100329.36;1676695;84;25718;-71
2022/03/28 10:29:21;;;;;;;14.40;6.37;;;;;;;26.99;19.22;100323.45;1700758;84;25465;-69
2022/03/28 10:32:01;;;;;;;15.93;7.28;;;;;;;26.81;20.39;100306.45;1700891;84;26180;-72
2022/03/28 10:34:53;;;;;;;10.90;6.50;;;;;;;26.87;20.38;100302.63;1700863;83;25697;-72
2022/03/28 10:37:37;;;;;;;10.38;6.17;;;;;;;27.00;20.40;100309.73;1700850;84;27426;-71
2022/03/28 10:40:29;;;;;;;12.00;6.90;;;;;;;27.39;19.71;100300.75;1700711;84;25557;-69
2022/03/28 10:43:07;;;;;;;16.20;6.58;;;;;;;27.68;20.15;100297.44;1708487;83;25710;-70
2022/03/28 10:45:47;;;;;;;12.73;6.33;;;;;;;27.98;19.17;100304.04;1707630;84;34651;-70
2022/03/28 10:48:15;;;;;;;17.95;7.83;;;;;;;27.86;19.93;100293.55;1708343;84;25741;-70
2022/03/28 10:50:51;;;;;;;18.55;7.45;;;;;;;28.45;19.63;100294.68;1708468;84;27404;-70
2022/03/28 10:53:33;;;;;;;16.55;7.15;;;;;;;28.76;19.02;100283.27;1708338;84;25632;-71
2022/03/28 10:56:13;;;;;;;24.07;7.75;;;;;;;28.76;18.19;100276.30;1708411;84;25446;-70
2022/03/28 10:58:45;;;;;;;18.37;7.40;;;;;;;28.42;18.73;100284.45;1708526;84;25617;-71
2022/03/28 11:01:21;;;;;;;15.15;6.97;;;;;;;28.38;18.57;100276.77;1708446;84;25447;-71
2022/03/28 11:04:19;;;;;;;13.72;6.83;;;;;;;28.34;18.66;100277.47;1708489;84;28007;-70
2022/03/28 11:07:06;;;;;;;14.18;7.30;;;;;;;28.50;19.52;100262.18;1708390;84;25418;-70
2022/03/28 11:09:44;;;;;;;15.78;6.53;;;;;;;29.33;19.59;100259.56;1708496;84;25630;-71
2022/03/28 11:12:30;;;;;;;10.95;6.58;;;;;;;29.52;18.59;100257.08;1708371;84;25669;-71
2022/03/28 11:15:01;;;;;;;16.75;6.53;;;;;;;29.75;18.55;100245.66;1708582;84;25714;-70
2022/03/28 11:17:31;;;;;;;15.13;6.83;;;;;;;29.75;18.34;100245.66;1684073;84;27546;-71
2022/03/28 11:20:22;;;;;;;16.23;6.37;;;;;;;29.56;18.17;100248.80;1708912;84;25750;-71
2022/03/28 11:22:55;;;;;;;15.90;5.70;;;;;;;28.97;18.88;100239.59;1708844;84;25436;-70
2022/03/28 11:25:31;;;;;;;11.53;5.95;;;;;;;28.64;18.98;100236.84;1710119;84;26387;-70
2022/03/28 11:28:27;;;;;;;11.43;5.75;;;;;;;28.09;19.28;100230.14;1710342;84;25416;-70
2022/03/28 11:31:03;;;;;;;17.92;6.72;;;;;;;27.59;18.84;100218.06;1708194;84;27365;-71
2022/03/28 11:33:35;;;;;;;15.28;5.62;;;;;;;26.36;19.40;100218.59;1709236;84;25585;-71